sensor_id;sensor_type;location;lat;lon;timestamp;P1;durP1;ratioP1;P2;durP2;ratioP2
38605;SDS011;24365;48.446;8.850;2022-12-18T00:01:44;54.70;;;19.60;;
38605;SDS011;24365;48.446;8.850;2022-12-18T00:06:45;44.58;;;17.27;;
38605;SDS011;24365;48.446;8.850;2022-12-18T00:11:46;44.42;;;18.25;;
38605;SDS011;24365;48.446;8.850;2022-12-18T00:16:47;46.83;;;17.83;;
38605;SDS011;24365;48.446;8.850;2022-12-18T00:21:48;57.17;;;20.35;;
38605;SDS011;24365;48.446;8.850;2022-12-18T00:26:48;60.72;;;21.17;;
38605;SDS011;24365;48.446;8.850;2022-12-18T00:31:49;84.78;;;29.70;;
38605;SDS011;24365;48.446;8.850;2022-12-18T00:36:50;55.42;;;19.67;;
38605;SDS011;24365;48.446;8.850;2022-12-18T00:41:51;48.33;;;18.25;;
38605;SDS011;24365;48.446;8.850;2022-12-18T00:47:11;44.63;;;16.13;;
38605;SDS011;24365;48.446;8.850;2022-12-18T00:52:11;50.60;;;18.23;;
38605;SDS011;24365;48.446;8.850;2022-12-18T00:57:12;39.45;;;16.02;;
38605;SDS011;24365;48.446;8.850;2022-12-18T01:02:13;48.60;;;17.17;;
38605;SDS011;24365;48.446;8.850;2022-12-18T01:07:14;46.72;;;18.63;;
38605;SDS011;24365;48.446;8.850;2022-12-18T01:12:15;48.20;;;16.83;;
38605;SDS011;24365;48.446;8.850;2022-12-18T01:17:16;43.95;;;17.52;;
38605;SDS011;24365;48.446;8.850;2022-12-18T01:22:17;47.38;;;16.73;;
38605;SDS011;24365;48.446;8.850;2022-12-18T01:27:18;49.67;;;17.20;;
38605;SDS011;24365;48.446;8.850;2022-12-18T01:32:19;45.78;;;18.65;;
38605;SDS011;24365;48.446;8.850;2022-12-18T01:37:20;47.10;;;17.42;;
38605;SDS011;24365;48.446;8.850;2022-12-18T01:42:23;45.33;;;17.73;;
38605;SDS011;24365;48.446;8.850;2022-12-18T01:52:45;46.53;;;18.35;;
38605;SDS011;24365;48.446;8.850;2022-12-18T01:57:49;47.05;;;18.45;;
38605;SDS011;24365;48.446;8.850;2022-12-18T02:02:54;50.47;;;17.77;;
38605;SDS011;24365;48.446;8.850;2022-12-18T02:18:30;47.55;;;19.08;;
38605;SDS011;24365;48.446;8.850;2022-12-18T02:28:53;50.70;;;18.38;;
38605;SDS011;24365;48.446;8.850;2022-12-18T02:34:02;40.53;;;16.58;;
38605;SDS011;24365;48.446;8.850;2022-12-18T02:39:11;43.08;;;16.85;;
38605;SDS011;24365;48.446;8.850;2022-12-18T02:44:20;38.15;;;13.77;;
38605;SDS011;24365;48.446;8.850;2022-12-18T02:59:52;39.33;;;14.85;;
38605;SDS011;24365;48.446;8.850;2022-12-18T03:04:57;45.80;;;17.52;;
38605;SDS011;24365;48.446;8.850;2022-12-18T03:10:12;43.60;;;17.25;;
38605;SDS011;24365;48.446;8.850;2022-12-18T03:15:25;43.20;;;16.92;;
38605;SDS011;24365;48.446;8.850;2022-12-18T03:20:41;39.05;;;16.58;;
38605;SDS011;24365;48.446;8.850;2022-12-18T03:25:46;41.25;;;15.75;;
38605;SDS011;24365;48.446;8.850;2022-12-18T03:30:51;41.90;;;16.33;;
38605;SDS011;24365;48.446;8.850;2022-12-18T03:35:56;42.75;;;17.45;;
38605;SDS011;24365;48.446;8.850;2022-12-18T03:46:05;43.67;;;16.70;;
38605;SDS011;24365;48.446;8.850;2022-12-18T03:51:32;41.13;;;15.15;;
38605;SDS011;24365;48.446;8.850;2022-12-18T03:56:57;40.58;;;15.27;;
38605;SDS011;24365;48.446;8.850;2022-12-18T04:02:02;45.55;;;17.83;;
38605;SDS011;24365;48.446;8.850;2022-12-18T04:07:06;50.45;;;17.42;;
38605;SDS011;24365;48.446;8.850;2022-12-18T04:12:12;46.88;;;16.52;;
38605;SDS011;24365;48.446;8.850;2022-12-18T04:17:13;43.63;;;17.52;;
38605;SDS011;24365;48.446;8.850;2022-12-18T04:22:14;45.92;;;17.17;;
38605;SDS011;24365;48.446;8.850;2022-12-18T04:27:20;43.15;;;15.52;;
38605;SDS011;24365;48.446;8.850;2022-12-18T04:32:24;45.65;;;15.57;;
38605;SDS011;24365;48.446;8.850;2022-12-18T04:37:25;47.13;;;16.77;;
38605;SDS011;24365;48.446;8.850;2022-12-18T04:42:26;45.42;;;15.82;;
38605;SDS011;24365;48.446;8.850;2022-12-18T04:47:26;43.85;;;16.27;;
38605;SDS011;24365;48.446;8.850;2022-12-18T04:52:27;44.38;;;15.55;;
38605;SDS011;24365;48.446;8.850;2022-12-18T04:57:31;40.90;;;15.82;;
38605;SDS011;24365;48.446;8.850;2022-12-18T05:02:32;40.05;;;15.27;;
38605;SDS011;24365;48.446;8.850;2022-12-18T05:07:33;48.92;;;18.05;;
38605;SDS011;24365;48.446;8.850;2022-12-18T05:12:34;44.33;;;14.95;;
38605;SDS011;24365;48.446;8.850;2022-12-18T05:17:55;46.88;;;15.80;;
38605;SDS011;24365;48.446;8.850;2022-12-18T05:22:57;47.35;;;14.82;;
38605;SDS011;24365;48.446;8.850;2022-12-18T05:27:58;38.83;;;15.95;;
38605;SDS011;24365;48.446;8.850;2022-12-18T05:32:58;47.20;;;15.90;;
38605;SDS011;24365;48.446;8.850;2022-12-18T05:37:59;53.20;;;15.88;;
38605;SDS011;24365;48.446;8.850;2022-12-18T05:43:00;50.20;;;15.90;;
38605;SDS011;24365;48.446;8.850;2022-12-18T05:48:01;40.15;;;15.02;;
38605;SDS011;24365;48.446;8.850;2022-12-18T05:53:02;42.63;;;15.30;;
38605;SDS011;24365;48.446;8.850;2022-12-18T05:58:04;48.47;;;16.30;;
38605;SDS011;24365;48.446;8.850;2022-12-18T06:03:06;43.28;;;15.32;;
38605;SDS011;24365;48.446;8.850;2022-12-18T06:08:09;46.05;;;15.13;;
38605;SDS011;24365;48.446;8.850;2022-12-18T06:13:10;45.25;;;16.17;;
38605;SDS011;24365;48.446;8.850;2022-12-18T06:18:11;45.60;;;16.35;;
38605;SDS011;24365;48.446;8.850;2022-12-18T06:23:12;39.60;;;15.00;;
38605;SDS011;24365;48.446;8.850;2022-12-18T06:28:13;51.17;;;17.45;;
38605;SDS011;24365;48.446;8.850;2022-12-18T06:33:14;45.25;;;15.98;;
38605;SDS011;24365;48.446;8.850;2022-12-18T06:38:16;46.50;;;15.73;;
38605;SDS011;24365;48.446;8.850;2022-12-18T06:43:18;41.63;;;14.68;;
38605;SDS011;24365;48.446;8.850;2022-12-18T06:48:19;53.58;;;16.52;;
38605;SDS011;24365;48.446;8.850;2022-12-18T06:53:20;48.97;;;17.65;;
38605;SDS011;24365;48.446;8.850;2022-12-18T06:58:21;41.08;;;15.25;;
38605;SDS011;24365;48.446;8.850;2022-12-18T07:03:22;40.05;;;15.02;;
38605;SDS011;24365;48.446;8.850;2022-12-18T07:08:22;46.53;;;15.55;;
38605;SDS011;24365;48.446;8.850;2022-12-18T07:13:24;46.20;;;17.33;;
38605;SDS011;24365;48.446;8.850;2022-12-18T07:18:24;55.20;;;16.83;;
38605;SDS011;24365;48.446;8.850;2022-12-18T07:23:25;52.22;;;18.85;;
38605;SDS011;24365;48.446;8.850;2022-12-18T07:28:26;49.92;;;17.88;;
38605;SDS011;24365;48.446;8.850;2022-12-18T07:33:27;43.28;;;15.32;;
38605;SDS011;24365;48.446;8.850;2022-12-18T07:38:28;47.35;;;17.35;;
38605;SDS011;24365;48.446;8.850;2022-12-18T07:43:28;59.80;;;19.80;;
38605;SDS011;24365;48.446;8.850;2022-12-18T07:48:29;57.30;;;19.98;;
38605;SDS011;24365;48.446;8.850;2022-12-18T07:53:30;49.17;;;19.00;;
38605;SDS011;24365;48.446;8.850;2022-12-18T07:58:33;56.22;;;18.60;;
38605;SDS011;24365;48.446;8.850;2022-12-18T08:03:34;55.97;;;18.00;;
38605;SDS011;24365;48.446;8.850;2022-12-18T08:08:35;56.13;;;18.85;;
38605;SDS011;24365;48.446;8.850;2022-12-18T08:13:36;55.90;;;17.95;;
38605;SDS011;24365;48.446;8.850;2022-12-18T08:18:37;52.38;;;18.90;;
38605;SDS011;24365;48.446;8.850;2022-12-18T08:23:38;55.53;;;18.52;;
38605;SDS011;24365;48.446;8.850;2022-12-18T08:28:40;53.08;;;17.83;;
38605;SDS011;24365;48.446;8.850;2022-12-18T08:33:41;41.00;;;16.63;;
38605;SDS011;24365;48.446;8.850;2022-12-18T08:38:42;48.22;;;17.10;;
38605;SDS011;24365;48.446;8.850;2022-12-18T08:43:43;40.75;;;16.33;;
38605;SDS011;24365;48.446;8.850;2022-12-18T08:49:03;45.33;;;15.93;;
38605;SDS011;24365;48.446;8.850;2022-12-18T08:54:05;49.50;;;17.73;;
38605;SDS011;24365;48.446;8.850;2022-12-18T08:59:09;51.05;;;20.80;;
38605;SDS011;24365;48.446;8.850;2022-12-18T09:04:10;46.33;;;18.42;;
38605;SDS011;24365;48.446;8.850;2022-12-18T09:09:12;49.28;;;17.73;;
38605;SDS011;24365;48.446;8.850;2022-12-18T09:14:12;44.88;;;17.75;;
38605;SDS011;24365;48.446;8.850;2022-12-18T09:19:13;42.08;;;16.27;;
38605;SDS011;24365;48.446;8.850;2022-12-18T09:24:15;52.20;;;17.08;;
38605;SDS011;24365;48.446;8.850;2022-12-18T09:29:16;49.53;;;16.48;;
38605;SDS011;24365;48.446;8.850;2022-12-18T09:34:17;49.65;;;16.98;;
38605;SDS011;24365;48.446;8.850;2022-12-18T09:39:21;53.85;;;17.33;;
38605;SDS011;24365;48.446;8.850;2022-12-18T09:44:29;40.45;;;15.27;;
38605;SDS011;24365;48.446;8.850;2022-12-18T09:49:31;45.70;;;15.20;;
38605;SDS011;24365;48.446;8.850;2022-12-18T09:54:40;46.55;;;15.05;;
38605;SDS011;24365;48.446;8.850;2022-12-18T09:59:42;31.17;;;13.35;;
38605;SDS011;24365;48.446;8.850;2022-12-18T10:05:05;49.17;;;16.50;;
38605;SDS011;24365;48.446;8.850;2022-12-18T10:10:21;41.85;;;15.98;;
38605;SDS011;24365;48.446;8.850;2022-12-18T10:16:06;43.33;;;16.73;;
38605;SDS011;24365;48.446;8.850;2022-12-18T10:21:13;46.60;;;15.47;;
38605;SDS011;24365;48.446;8.850;2022-12-18T10:26:19;44.45;;;16.23;;
38605;SDS011;24365;48.446;8.850;2022-12-18T10:31:21;46.17;;;15.55;;
38605;SDS011;24365;48.446;8.850;2022-12-18T10:36:24;43.53;;;15.85;;
38605;SDS011;24365;48.446;8.850;2022-12-18T10:41:25;43.85;;;16.42;;
38605;SDS011;24365;48.446;8.850;2022-12-18T10:46:27;58.05;;;18.52;;
38605;SDS011;24365;48.446;8.850;2022-12-18T10:51:34;57.88;;;20.30;;
38605;SDS011;24365;48.446;8.850;2022-12-18T10:56:37;72.15;;;25.75;;
38605;SDS011;24365;48.446;8.850;2022-12-18T11:01:46;80.70;;;30.50;;
38605;SDS011;24365;48.446;8.850;2022-12-18T11:06:58;67.13;;;23.02;;
38605;SDS011;24365;48.446;8.850;2022-12-18T11:12:02;56.33;;;20.50;;
38605;SDS011;24365;48.446;8.850;2022-12-18T11:17:16;49.55;;;19.00;;
38605;SDS011;24365;48.446;8.850;2022-12-18T11:22:35;62.50;;;24.48;;
38605;SDS011;24365;48.446;8.850;2022-12-18T11:27:38;61.47;;;23.20;;
38605;SDS011;24365;48.446;8.850;2022-12-18T11:32:40;62.78;;;25.63;;
38605;SDS011;24365;48.446;8.850;2022-12-18T11:37:50;61.88;;;21.85;;
38605;SDS011;24365;48.446;8.850;2022-12-18T11:43:31;58.72;;;21.20;;
38605;SDS011;24365;48.446;8.850;2022-12-18T11:48:30;67.05;;;23.08;;
38605;SDS011;24365;48.446;8.850;2022-12-18T11:53:37;75.20;;;27.77;;
38605;SDS011;24365;48.446;8.850;2022-12-18T12:15:10;72.18;;;26.33;;
38605;SDS011;24365;48.446;8.850;2022-12-18T12:31:05;72.80;;;26.77;;
38605;SDS011;24365;48.446;8.850;2022-12-18T12:36:22;76.10;;;28.65;;
38605;SDS011;24365;48.446;8.850;2022-12-18T12:41:31;79.13;;;30.38;;
38605;SDS011;24365;48.446;8.850;2022-12-18T12:46:55;92.63;;;31.92;;
38605;SDS011;24365;48.446;8.850;2022-12-18T12:52:18;86.70;;;32.35;;
38605;SDS011;24365;48.446;8.850;2022-12-18T12:57:39;76.10;;;30.83;;
38605;SDS011;24365;48.446;8.850;2022-12-18T13:08:10;87.50;;;34.55;;
38605;SDS011;24365;48.446;8.850;2022-12-18T13:13:21;81.13;;;30.17;;
38605;SDS011;24365;48.446;8.850;2022-12-18T13:18:23;79.95;;;34.20;;
38605;SDS011;24365;48.446;8.850;2022-12-18T13:33:47;90.38;;;33.80;;
38605;SDS011;24365;48.446;8.850;2022-12-18T13:44:22;91.28;;;33.65;;
38605;SDS011;24365;48.446;8.850;2022-12-18T13:49:36;79.00;;;31.33;;
38605;SDS011;24365;48.446;8.850;2022-12-18T13:54:41;59.20;;;21.98;;
38605;SDS011;24365;48.446;8.850;2022-12-18T13:59:42;117.40;;;42.40;;
38605;SDS011;24365;48.446;8.850;2022-12-18T14:04:47;86.45;;;33.80;;
38605;SDS011;24365;48.446;8.850;2022-12-18T14:09:55;68.78;;;25.55;;
38605;SDS011;24365;48.446;8.850;2022-12-18T14:14:58;68.32;;;27.60;;
38605;SDS011;24365;48.446;8.850;2022-12-18T14:20:00;69.65;;;24.65;;
38605;SDS011;24365;48.446;8.850;2022-12-18T14:25:13;58.65;;;22.98;;
38605;SDS011;24365;48.446;8.850;2022-12-18T14:30:23;53.95;;;20.77;;
38605;SDS011;24365;48.446;8.850;2022-12-18T14:35:24;68.13;;;24.17;;
38605;SDS011;24365;48.446;8.850;2022-12-18T14:40:25;62.63;;;24.05;;
38605;SDS011;24365;48.446;8.850;2022-12-18T14:50:41;58.38;;;21.48;;
38605;SDS011;24365;48.446;8.850;2022-12-18T14:55:45;54.30;;;20.85;;
38605;SDS011;24365;48.446;8.850;2022-12-18T15:00:47;58.97;;;21.73;;
38605;SDS011;24365;48.446;8.850;2022-12-18T15:05:48;57.75;;;20.05;;
38605;SDS011;24365;48.446;8.850;2022-12-18T15:10:49;62.35;;;21.23;;
38605;SDS011;24365;48.446;8.850;2022-12-18T15:20:57;62.53;;;22.10;;
38605;SDS011;24365;48.446;8.850;2022-12-18T15:31:05;59.58;;;22.10;;
38605;SDS011;24365;48.446;8.850;2022-12-18T15:36:22;61.63;;;21.85;;
38605;SDS011;24365;48.446;8.850;2022-12-18T15:41:23;67.57;;;23.42;;
38605;SDS011;24365;48.446;8.850;2022-12-18T15:51:33;57.28;;;20.25;;
38605;SDS011;24365;48.446;8.850;2022-12-18T15:56:36;69.20;;;25.10;;
38605;SDS011;24365;48.446;8.850;2022-12-18T16:01:56;62.22;;;23.92;;
38605;SDS011;24365;48.446;8.850;2022-12-18T16:07:01;71.10;;;26.10;;
38605;SDS011;24365;48.446;8.850;2022-12-18T16:12:24;73.30;;;27.27;;
38605;SDS011;24365;48.446;8.850;2022-12-18T16:17:26;72.60;;;26.48;;
38605;SDS011;24365;48.446;8.850;2022-12-18T16:22:28;73.57;;;27.45;;
38605;SDS011;24365;48.446;8.850;2022-12-18T16:27:29;86.53;;;31.70;;
38605;SDS011;24365;48.446;8.850;2022-12-18T16:37:31;73.73;;;26.93;;
38605;SDS011;24365;48.446;8.850;2022-12-18T16:47:32;73.53;;;24.70;;
38605;SDS011;24365;48.446;8.850;2022-12-18T16:52:34;93.82;;;34.63;;
38605;SDS011;24365;48.446;8.850;2022-12-18T16:57:36;102.18;;;37.47;;
38605;SDS011;24365;48.446;8.850;2022-12-18T17:07:37;92.85;;;35.38;;
38605;SDS011;24365;48.446;8.850;2022-12-18T17:17:39;97.40;;;37.47;;
38605;SDS011;24365;48.446;8.850;2022-12-18T17:27:41;104.80;;;40.67;;
38605;SDS011;24365;48.446;8.850;2022-12-18T17:37:43;92.00;;;37.07;;
38605;SDS011;24365;48.446;8.850;2022-12-18T17:47:44;81.38;;;31.50;;
38605;SDS011;24365;48.446;8.850;2022-12-18T17:57:46;55.70;;;20.40;;
38605;SDS011;24365;48.446;8.850;2022-12-18T18:07:48;58.00;;;24.25;;
38605;SDS011;24365;48.446;8.850;2022-12-18T18:12:49;94.90;;;37.00;;
38605;SDS011;24365;48.446;8.850;2022-12-18T18:18:09;97.15;;;35.72;;
38605;SDS011;24365;48.446;8.850;2022-12-18T18:28:10;66.23;;;26.33;;
38605;SDS011;24365;48.446;8.850;2022-12-18T18:38:12;100.33;;;36.47;;
38605;SDS011;24365;48.446;8.850;2022-12-18T18:48:13;76.67;;;29.53;;
38605;SDS011;24365;48.446;8.850;2022-12-18T18:58:15;74.80;;;27.27;;
38605;SDS011;24365;48.446;8.850;2022-12-18T19:08:20;79.40;;;30.33;;
38605;SDS011;24365;48.446;8.850;2022-12-18T19:13:32;90.43;;;33.35;;
38605;SDS011;24365;48.446;8.850;2022-12-18T19:18:33;90.18;;;32.97;;
38605;SDS011;24365;48.446;8.850;2022-12-18T19:23:40;84.80;;;32.83;;
38605;SDS011;24365;48.446;8.850;2022-12-18T19:28:41;72.88;;;29.05;;
38605;SDS011;24365;48.446;8.850;2022-12-18T19:33:43;65.90;;;27.35;;
38605;SDS011;24365;48.446;8.850;2022-12-18T19:38:46;76.13;;;29.30;;
38605;SDS011;24365;48.446;8.850;2022-12-18T19:43:48;72.80;;;28.33;;
38605;SDS011;24365;48.446;8.850;2022-12-18T19:48:50;95.88;;;34.72;;
38605;SDS011;24365;48.446;8.850;2022-12-18T19:53:51;104.82;;;37.58;;
38605;SDS011;24365;48.446;8.850;2022-12-18T19:58:54;88.63;;;34.10;;
38605;SDS011;24365;48.446;8.850;2022-12-18T20:03:55;88.05;;;33.03;;
38605;SDS011;24365;48.446;8.850;2022-12-18T20:14:02;76.30;;;27.88;;
38605;SDS011;24365;48.446;8.850;2022-12-18T20:19:04;94.97;;;35.78;;
38605;SDS011;24365;48.446;8.850;2022-12-18T20:24:05;101.45;;;40.20;;
38605;SDS011;24365;48.446;8.850;2022-12-18T20:29:07;102.40;;;37.72;;
38605;SDS011;24365;48.446;8.850;2022-12-18T20:34:08;95.57;;;37.20;;
38605;SDS011;24365;48.446;8.850;2022-12-18T20:39:09;91.57;;;36.20;;
38605;SDS011;24365;48.446;8.850;2022-12-18T20:44:12;76.38;;;31.55;;
38605;SDS011;24365;48.446;8.850;2022-12-18T20:49:15;89.05;;;34.50;;
38605;SDS011;24365;48.446;8.850;2022-12-18T20:54:15;80.43;;;33.75;;
38605;SDS011;24365;48.446;8.850;2022-12-18T20:59:16;83.57;;;33.17;;
38605;SDS011;24365;48.446;8.850;2022-12-18T21:04:19;81.75;;;32.53;;
38605;SDS011;24365;48.446;8.850;2022-12-18T21:14:41;90.50;;;34.63;;
38605;SDS011;24365;48.446;8.850;2022-12-18T21:19:43;91.93;;;35.75;;
38605;SDS011;24365;48.446;8.850;2022-12-18T21:24:44;91.45;;;36.00;;
38605;SDS011;24365;48.446;8.850;2022-12-18T21:29:45;92.57;;;35.85;;
38605;SDS011;24365;48.446;8.850;2022-12-18T21:39:47;87.53;;;34.17;;
38605;SDS011;24365;48.446;8.850;2022-12-18T21:49:49;60.03;;;22.33;;
38605;SDS011;24365;48.446;8.850;2022-12-18T21:54:51;75.15;;;29.45;;
38605;SDS011;24365;48.446;8.850;2022-12-18T21:59:52;66.10;;;28.75;;
38605;SDS011;24365;48.446;8.850;2022-12-18T22:09:54;83.70;;;34.03;;
38605;SDS011;24365;48.446;8.850;2022-12-18T22:14:54;87.38;;;34.58;;
38605;SDS011;24365;48.446;8.850;2022-12-18T22:19:55;91.93;;;33.92;;
38605;SDS011;24365;48.446;8.850;2022-12-18T22:24:56;87.43;;;34.80;;
38605;SDS011;24365;48.446;8.850;2022-12-18T22:29:57;80.13;;;33.63;;
38605;SDS011;24365;48.446;8.850;2022-12-18T22:35:04;83.60;;;34.20;;
38605;SDS011;24365;48.446;8.850;2022-12-18T22:40:05;84.30;;;34.03;;
38605;SDS011;24365;48.446;8.850;2022-12-18T22:45:06;95.30;;;38.15;;
38605;SDS011;24365;48.446;8.850;2022-12-18T22:50:09;98.35;;;37.42;;
38605;SDS011;24365;48.446;8.850;2022-12-18T22:55:12;85.80;;;33.58;;
38605;SDS011;24365;48.446;8.850;2022-12-18T23:00:13;65.00;;;24.80;;
38605;SDS011;24365;48.446;8.850;2022-12-18T23:10:14;82.88;;;33.97;;
38605;SDS011;24365;48.446;8.850;2022-12-18T23:15:15;90.65;;;34.67;;
38605;SDS011;24365;48.446;8.850;2022-12-18T23:20:16;85.68;;;32.70;;
38605;SDS011;24365;48.446;8.850;2022-12-18T23:25:17;81.03;;;34.38;;
38605;SDS011;24365;48.446;8.850;2022-12-18T23:30:18;86.03;;;34.63;;
38605;SDS011;24365;48.446;8.850;2022-12-18T23:35:18;88.90;;;34.42;;
38605;SDS011;24365;48.446;8.850;2022-12-18T23:40:19;84.63;;;33.47;;
38605;SDS011;24365;48.446;8.850;2022-12-18T23:45:20;68.05;;;27.25;;
38605;SDS011;24365;48.446;8.850;2022-12-18T23:50:21;69.10;;;26.50;;
38605;SDS011;24365;48.446;8.850;2022-12-18T23:55:22;80.47;;;33.15;;
